sensor_id;sensor_type;location;lat;lon;timestamp;P1;durP1;ratioP1;P2;durP2;ratioP2
21089;SDS011;10703;51.020;6.128;2023-06-14T00:01:29;12.33;;;8.20;;
21089;SDS011;10703;51.020;6.128;2023-06-14T00:03:55;10.20;;;7.77;;
21089;SDS011;10703;51.020;6.128;2023-06-14T00:06:22;13.67;;;7.57;;
21089;SDS011;10703;51.020;6.128;2023-06-14T00:08:50;9.53;;;6.60;;
21089;SDS011;10703;51.020;6.128;2023-06-14T00:11:17;12.70;;;8.00;;
21089;SDS011;10703;51.020;6.128;2023-06-14T00:13:43;11.67;;;7.43;;
21089;SDS011;10703;51.020;6.128;2023-06-14T00:16:11;10.13;;;6.63;;
21089;SDS011;10703;51.020;6.128;2023-06-14T00:18:37;9.50;;;6.80;;
21089;SDS011;10703;51.020;6.128;2023-06-14T00:21:05;10.03;;;6.20;;
21089;SDS011;10703;51.020;6.128;2023-06-14T00:23:31;8.50;;;6.20;;
21089;SDS011;10703;51.020;6.128;2023-06-14T00:25:58;14.20;;;6.43;;
21089;SDS011;10703;51.020;6.128;2023-06-14T00:28:24;11.07;;;6.90;;
21089;SDS011;10703;51.020;6.128;2023-06-14T00:30:51;7.60;;;6.33;;
21089;SDS011;10703;51.020;6.128;2023-06-14T00:33:18;9.93;;;7.10;;
21089;SDS011;10703;51.020;6.128;2023-06-14T00:35:44;9.03;;;6.90;;
21089;SDS011;10703;51.020;6.128;2023-06-14T00:38:11;15.27;;;6.67;;
21089;SDS011;10703;51.020;6.128;2023-06-14T00:40:38;10.53;;;7.47;;
21089;SDS011;10703;51.020;6.128;2023-06-14T00:43:04;15.40;;;6.77;;
21089;SDS011;10703;51.020;6.128;2023-06-14T00:45:31;8.87;;;7.13;;
21089;SDS011;10703;51.020;6.128;2023-06-14T00:48:02;10.57;;;6.57;;
21089;SDS011;10703;51.020;6.128;2023-06-14T00:50:32;10.43;;;6.90;;
21089;SDS011;10703;51.020;6.128;2023-06-14T00:53:00;10.40;;;6.83;;
21089;SDS011;10703;51.020;6.128;2023-06-14T00:55:27;12.03;;;7.23;;
21089;SDS011;10703;51.020;6.128;2023-06-14T00:57:54;11.07;;;7.90;;
21089;SDS011;10703;51.020;6.128;2023-06-14T01:00:21;9.60;;;7.50;;
21089;SDS011;10703;51.020;6.128;2023-06-14T01:02:48;11.90;;;8.07;;
21089;SDS011;10703;51.020;6.128;2023-06-14T01:05:18;15.03;;;8.07;;
21089;SDS011;10703;51.020;6.128;2023-06-14T01:07:55;10.20;;;7.50;;
21089;SDS011;10703;51.020;6.128;2023-06-14T01:10:30;9.10;;;7.50;;
21089;SDS011;10703;51.020;6.128;2023-06-14T01:15:55;8.17;;;7.37;;
21089;SDS011;10703;51.020;6.128;2023-06-14T01:18:22;12.57;;;7.90;;
21089;SDS011;10703;51.020;6.128;2023-06-14T01:20:50;9.13;;;7.50;;
21089;SDS011;10703;51.020;6.128;2023-06-14T01:23:17;9.80;;;7.80;;
21089;SDS011;10703;51.020;6.128;2023-06-14T01:25:44;13.60;;;7.80;;
21089;SDS011;10703;51.020;6.128;2023-06-14T01:28:13;12.67;;;8.00;;
21089;SDS011;10703;51.020;6.128;2023-06-14T01:30:43;17.90;;;8.20;;
21089;SDS011;10703;51.020;6.128;2023-06-14T01:33:12;10.80;;;8.37;;
21089;SDS011;10703;51.020;6.128;2023-06-14T01:35:42;13.13;;;8.27;;
21089;SDS011;10703;51.020;6.128;2023-06-14T01:38:10;12.10;;;8.20;;
21089;SDS011;10703;51.020;6.128;2023-06-14T01:40:39;13.27;;;8.60;;
21089;SDS011;10703;51.020;6.128;2023-06-14T01:43:09;9.87;;;7.53;;
21089;SDS011;10703;51.020;6.128;2023-06-14T01:45:40;16.23;;;7.90;;
21089;SDS011;10703;51.020;6.128;2023-06-14T01:48:08;12.03;;;8.10;;
21089;SDS011;10703;51.020;6.128;2023-06-14T01:50:35;11.80;;;8.13;;
21089;SDS011;10703;51.020;6.128;2023-06-14T01:53:02;13.73;;;8.40;;
21089;SDS011;10703;51.020;6.128;2023-06-14T01:55:30;12.17;;;8.27;;
21089;SDS011;10703;51.020;6.128;2023-06-14T01:58:04;9.53;;;8.40;;
21089;SDS011;10703;51.020;6.128;2023-06-14T02:00:31;9.03;;;7.70;;
21089;SDS011;10703;51.020;6.128;2023-06-14T02:02:57;11.70;;;8.57;;
21089;SDS011;10703;51.020;6.128;2023-06-14T02:05:24;10.47;;;8.23;;
21089;SDS011;10703;51.020;6.128;2023-06-14T02:07:51;11.67;;;7.93;;
21089;SDS011;10703;51.020;6.128;2023-06-14T02:10:20;11.07;;;8.43;;
21089;SDS011;10703;51.020;6.128;2023-06-14T02:12:47;10.47;;;9.27;;
21089;SDS011;10703;51.020;6.128;2023-06-14T02:15:13;13.13;;;8.70;;
21089;SDS011;10703;51.020;6.128;2023-06-14T02:17:44;11.70;;;8.70;;
21089;SDS011;10703;51.020;6.128;2023-06-14T02:20:11;11.27;;;8.70;;
21089;SDS011;10703;51.020;6.128;2023-06-14T02:22:39;13.07;;;8.30;;
21089;SDS011;10703;51.020;6.128;2023-06-14T02:25:06;9.17;;;8.27;;
21089;SDS011;10703;51.020;6.128;2023-06-14T02:27:33;11.77;;;9.20;;
21089;SDS011;10703;51.020;6.128;2023-06-14T02:30:01;9.83;;;8.57;;
21089;SDS011;10703;51.020;6.128;2023-06-14T02:32:28;9.00;;;8.10;;
21089;SDS011;10703;51.020;6.128;2023-06-14T02:34:55;13.80;;;7.97;;
21089;SDS011;10703;51.020;6.128;2023-06-14T02:37:21;9.97;;;8.33;;
21089;SDS011;10703;51.020;6.128;2023-06-14T02:39:48;13.03;;;8.13;;
21089;SDS011;10703;51.020;6.128;2023-06-14T02:42:14;9.47;;;8.07;;
21089;SDS011;10703;51.020;6.128;2023-06-14T02:44:41;9.47;;;8.53;;
21089;SDS011;10703;51.020;6.128;2023-06-14T02:47:09;9.07;;;7.80;;
21089;SDS011;10703;51.020;6.128;2023-06-14T02:49:36;10.27;;;8.07;;
21089;SDS011;10703;51.020;6.128;2023-06-14T02:52:03;10.30;;;8.60;;
21089;SDS011;10703;51.020;6.128;2023-06-14T02:54:29;9.37;;;8.37;;
21089;SDS011;10703;51.020;6.128;2023-06-14T02:56:56;10.73;;;8.73;;
21089;SDS011;10703;51.020;6.128;2023-06-14T02:59:23;11.57;;;8.90;;
21089;SDS011;10703;51.020;6.128;2023-06-14T03:01:51;9.90;;;8.20;;
21089;SDS011;10703;51.020;6.128;2023-06-14T03:04:17;13.10;;;8.27;;
21089;SDS011;10703;51.020;6.128;2023-06-14T03:06:44;12.67;;;8.70;;
21089;SDS011;10703;51.020;6.128;2023-06-14T03:09:16;9.77;;;8.47;;
21089;SDS011;10703;51.020;6.128;2023-06-14T03:11:43;10.40;;;9.07;;
21089;SDS011;10703;51.020;6.128;2023-06-14T03:14:10;12.03;;;8.53;;
21089;SDS011;10703;51.020;6.128;2023-06-14T03:16:37;12.93;;;8.40;;
21089;SDS011;10703;51.020;6.128;2023-06-14T03:19:04;9.63;;;8.37;;
21089;SDS011;10703;51.020;6.128;2023-06-14T03:21:31;11.90;;;8.73;;
21089;SDS011;10703;51.020;6.128;2023-06-14T03:23:58;10.60;;;8.87;;
21089;SDS011;10703;51.020;6.128;2023-06-14T03:26:25;15.13;;;8.70;;
21089;SDS011;10703;51.020;6.128;2023-06-14T03:28:51;11.30;;;9.03;;
21089;SDS011;10703;51.020;6.128;2023-06-14T03:31:18;13.37;;;9.47;;
21089;SDS011;10703;51.020;6.128;2023-06-14T03:33:45;9.77;;;8.83;;
21089;SDS011;10703;51.020;6.128;2023-06-14T03:36:11;14.80;;;9.53;;
21089;SDS011;10703;51.020;6.128;2023-06-14T03:38:38;15.07;;;9.23;;
21089;SDS011;10703;51.020;6.128;2023-06-14T03:41:05;10.63;;;8.67;;
21089;SDS011;10703;51.020;6.128;2023-06-14T03:43:31;14.37;;;9.03;;
21089;SDS011;10703;51.020;6.128;2023-06-14T03:45:59;11.40;;;9.63;;
21089;SDS011;10703;51.020;6.128;2023-06-14T03:48:26;10.17;;;9.07;;
21089;SDS011;10703;51.020;6.128;2023-06-14T03:50:53;9.80;;;8.60;;
21089;SDS011;10703;51.020;6.128;2023-06-14T03:53:23;12.23;;;9.43;;
21089;SDS011;10703;51.020;6.128;2023-06-14T03:55:50;13.03;;;9.47;;
21089;SDS011;10703;51.020;6.128;2023-06-14T03:58:22;15.87;;;10.03;;
21089;SDS011;10703;51.020;6.128;2023-06-14T04:00:49;10.93;;;9.30;;
21089;SDS011;10703;51.020;6.128;2023-06-14T04:03:15;13.23;;;9.07;;
21089;SDS011;10703;51.020;6.128;2023-06-14T04:05:42;12.57;;;8.87;;
21089;SDS011;10703;51.020;6.128;2023-06-14T04:08:10;10.53;;;8.63;;
21089;SDS011;10703;51.020;6.128;2023-06-14T04:10:40;16.50;;;8.90;;
21089;SDS011;10703;51.020;6.128;2023-06-14T04:13:07;11.57;;;7.53;;
21089;SDS011;10703;51.020;6.128;2023-06-14T04:15:34;15.10;;;9.33;;
21089;SDS011;10703;51.020;6.128;2023-06-14T04:18:01;14.60;;;10.07;;
21089;SDS011;10703;51.020;6.128;2023-06-14T04:20:28;12.40;;;9.63;;
21089;SDS011;10703;51.020;6.128;2023-06-14T04:22:56;12.63;;;9.67;;
21089;SDS011;10703;51.020;6.128;2023-06-14T04:25:23;14.40;;;9.97;;
21089;SDS011;10703;51.020;6.128;2023-06-14T04:27:52;11.63;;;10.17;;
21089;SDS011;10703;51.020;6.128;2023-06-14T04:30:19;13.50;;;9.57;;
21089;SDS011;10703;51.020;6.128;2023-06-14T04:32:47;16.50;;;11.10;;
21089;SDS011;10703;51.020;6.128;2023-06-14T04:35:15;17.17;;;9.90;;
21089;SDS011;10703;51.020;6.128;2023-06-14T04:37:43;10.50;;;9.00;;
21089;SDS011;10703;51.020;6.128;2023-06-14T04:40:11;12.97;;;10.27;;
21089;SDS011;10703;51.020;6.128;2023-06-14T04:42:38;12.43;;;9.03;;
21089;SDS011;10703;51.020;6.128;2023-06-14T04:45:07;11.60;;;8.80;;
21089;SDS011;10703;51.020;6.128;2023-06-14T04:47:36;12.70;;;8.40;;
21089;SDS011;10703;51.020;6.128;2023-06-14T04:50:03;26.13;;;8.87;;
21089;SDS011;10703;51.020;6.128;2023-06-14T04:52:30;12.77;;;8.73;;
21089;SDS011;10703;51.020;6.128;2023-06-14T04:54:57;15.77;;;8.73;;
21089;SDS011;10703;51.020;6.128;2023-06-14T04:57:25;10.93;;;9.13;;
21089;SDS011;10703;51.020;6.128;2023-06-14T04:59:51;11.23;;;8.60;;
21089;SDS011;10703;51.020;6.128;2023-06-14T05:02:24;14.17;;;8.47;;
21089;SDS011;10703;51.020;6.128;2023-06-14T05:04:52;10.97;;;8.50;;
21089;SDS011;10703;51.020;6.128;2023-06-14T05:07:19;9.77;;;8.30;;
21089;SDS011;10703;51.020;6.128;2023-06-14T05:09:46;14.40;;;8.40;;
21089;SDS011;10703;51.020;6.128;2023-06-14T05:12:12;13.03;;;8.23;;
21089;SDS011;10703;51.020;6.128;2023-06-14T05:14:39;10.80;;;8.30;;
21089;SDS011;10703;51.020;6.128;2023-06-14T05:17:06;11.07;;;8.43;;
21089;SDS011;10703;51.020;6.128;2023-06-14T05:19:33;15.70;;;8.40;;
21089;SDS011;10703;51.020;6.128;2023-06-14T05:21:59;13.10;;;8.07;;
21089;SDS011;10703;51.020;6.128;2023-06-14T05:24:26;18.63;;;8.20;;
21089;SDS011;10703;51.020;6.128;2023-06-14T05:26:53;10.43;;;7.83;;
21089;SDS011;10703;51.020;6.128;2023-06-14T05:29:20;13.57;;;8.33;;
21089;SDS011;10703;51.020;6.128;2023-06-14T05:31:46;11.13;;;7.57;;
21089;SDS011;10703;51.020;6.128;2023-06-14T05:34:13;13.30;;;8.33;;
21089;SDS011;10703;51.020;6.128;2023-06-14T05:36:40;12.13;;;7.97;;
21089;SDS011;10703;51.020;6.128;2023-06-14T05:39:06;16.03;;;8.40;;
21089;SDS011;10703;51.020;6.128;2023-06-14T05:41:34;12.87;;;8.13;;
21089;SDS011;10703;51.020;6.128;2023-06-14T05:44:01;12.07;;;7.47;;
21089;SDS011;10703;51.020;6.128;2023-06-14T05:46:27;11.80;;;7.37;;
21089;SDS011;10703;51.020;6.128;2023-06-14T05:48:54;10.40;;;7.17;;
21089;SDS011;10703;51.020;6.128;2023-06-14T05:51:22;9.13;;;7.10;;
21089;SDS011;10703;51.020;6.128;2023-06-14T05:53:51;9.47;;;7.70;;
21089;SDS011;10703;51.020;6.128;2023-06-14T05:56:17;11.83;;;7.27;;
21089;SDS011;10703;51.020;6.128;2023-06-14T05:58:44;14.03;;;6.93;;
21089;SDS011;10703;51.020;6.128;2023-06-14T06:01:11;11.47;;;7.23;;
21089;SDS011;10703;51.020;6.128;2023-06-14T06:03:39;10.27;;;6.87;;
21089;SDS011;10703;51.020;6.128;2023-06-14T06:06:06;9.83;;;6.20;;
21089;SDS011;10703;51.020;6.128;2023-06-14T06:08:34;7.37;;;6.17;;
21089;SDS011;10703;51.020;6.128;2023-06-14T06:11:01;10.97;;;6.70;;
21089;SDS011;10703;51.020;6.128;2023-06-14T06:13:27;11.53;;;6.73;;
21089;SDS011;10703;51.020;6.128;2023-06-14T06:15:54;11.63;;;7.03;;
21089;SDS011;10703;51.020;6.128;2023-06-14T06:18:22;10.13;;;5.70;;
21089;SDS011;10703;51.020;6.128;2023-06-14T06:20:48;8.87;;;6.70;;
21089;SDS011;10703;51.020;6.128;2023-06-14T06:23:16;14.40;;;5.90;;
21089;SDS011;10703;51.020;6.128;2023-06-14T06:25:43;8.77;;;5.60;;
21089;SDS011;10703;51.020;6.128;2023-06-14T06:28:09;12.57;;;5.70;;
21089;SDS011;10703;51.020;6.128;2023-06-14T06:30:37;14.27;;;5.57;;
21089;SDS011;10703;51.020;6.128;2023-06-14T06:33:04;12.27;;;6.33;;
21089;SDS011;10703;51.020;6.128;2023-06-14T06:35:31;14.70;;;6.00;;
21089;SDS011;10703;51.020;6.128;2023-06-14T06:37:59;7.80;;;5.70;;
21089;SDS011;10703;51.020;6.128;2023-06-14T06:40:26;14.10;;;5.67;;
21089;SDS011;10703;51.020;6.128;2023-06-14T06:42:53;12.33;;;5.13;;
21089;SDS011;10703;51.020;6.128;2023-06-14T06:45:20;17.83;;;5.40;;
21089;SDS011;10703;51.020;6.128;2023-06-14T06:47:50;10.45;;;4.78;;
21089;SDS011;10703;51.020;6.128;2023-06-14T06:50:17;17.02;;;5.30;;
21089;SDS011;10703;51.020;6.128;2023-06-14T06:52:44;21.05;;;4.95;;
21089;SDS011;10703;51.020;6.128;2023-06-14T06:55:11;12.55;;;4.78;;
21089;SDS011;10703;51.020;6.128;2023-06-14T06:57:39;9.15;;;4.82;;
21089;SDS011;10703;51.020;6.128;2023-06-14T07:00:06;11.07;;;4.50;;
21089;SDS011;10703;51.020;6.128;2023-06-14T07:02:36;11.68;;;4.72;;
21089;SDS011;10703;51.020;6.128;2023-06-14T07:05:03;19.08;;;4.60;;
21089;SDS011;10703;51.020;6.128;2023-06-14T07:07:31;16.40;;;4.57;;
21089;SDS011;10703;51.020;6.128;2023-06-14T07:09:57;15.63;;;5.05;;
21089;SDS011;10703;51.020;6.128;2023-06-14T07:12:24;11.68;;;4.63;;
21089;SDS011;10703;51.020;6.128;2023-06-14T07:14:51;10.30;;;4.85;;
21089;SDS011;10703;51.020;6.128;2023-06-14T07:17:18;14.63;;;4.95;;
21089;SDS011;10703;51.020;6.128;2023-06-14T07:19:45;15.27;;;4.60;;
21089;SDS011;10703;51.020;6.128;2023-06-14T07:22:11;11.55;;;4.00;;
21089;SDS011;10703;51.020;6.128;2023-06-14T07:24:38;12.40;;;4.38;;
21089;SDS011;10703;51.020;6.128;2023-06-14T07:27:06;15.68;;;4.65;;
21089;SDS011;10703;51.020;6.128;2023-06-14T07:29:33;9.70;;;3.88;;
21089;SDS011;10703;51.020;6.128;2023-06-14T07:32:00;12.38;;;4.20;;
21089;SDS011;10703;51.020;6.128;2023-06-14T07:34:27;5.07;;;3.42;;
21089;SDS011;10703;51.020;6.128;2023-06-14T07:36:53;6.53;;;3.53;;
21089;SDS011;10703;51.020;6.128;2023-06-14T07:39:20;7.30;;;3.80;;
21089;SDS011;10703;51.020;6.128;2023-06-14T07:41:47;10.52;;;3.58;;
21089;SDS011;10703;51.020;6.128;2023-06-14T07:44:13;8.80;;;3.90;;
21089;SDS011;10703;51.020;6.128;2023-06-14T07:46:40;9.57;;;4.03;;
21089;SDS011;10703;51.020;6.128;2023-06-14T07:49:07;9.32;;;3.35;;
21089;SDS011;10703;51.020;6.128;2023-06-14T07:51:34;6.70;;;3.78;;
21089;SDS011;10703;51.020;6.128;2023-06-14T07:54:01;6.22;;;3.92;;
21089;SDS011;10703;51.020;6.128;2023-06-14T07:56:28;4.88;;;3.90;;
21089;SDS011;10703;51.020;6.128;2023-06-14T07:58:54;6.88;;;3.90;;
21089;SDS011;10703;51.020;6.128;2023-06-14T08:01:21;7.10;;;3.60;;
21089;SDS011;10703;51.020;6.128;2023-06-14T08:03:50;8.13;;;4.20;;
21089;SDS011;10703;51.020;6.128;2023-06-14T08:06:17;5.88;;;3.72;;
21089;SDS011;10703;51.020;6.128;2023-06-14T08:08:43;7.45;;;4.15;;
21089;SDS011;10703;51.020;6.128;2023-06-14T08:11:10;10.98;;;4.28;;
21089;SDS011;10703;51.020;6.128;2023-06-14T08:13:37;5.20;;;3.40;;
21089;SDS011;10703;51.020;6.128;2023-06-14T08:16:03;7.03;;;3.67;;
21089;SDS011;10703;51.020;6.128;2023-06-14T08:18:31;5.70;;;3.45;;
21089;SDS011;10703;51.020;6.128;2023-06-14T08:20:58;8.23;;;3.28;;
21089;SDS011;10703;51.020;6.128;2023-06-14T08:23:25;7.45;;;3.75;;
21089;SDS011;10703;51.020;6.128;2023-06-14T08:25:51;8.52;;;3.47;;
21089;SDS011;10703;51.020;6.128;2023-06-14T08:28:19;9.40;;;3.88;;
21089;SDS011;10703;51.020;6.128;2023-06-14T08:30:46;6.13;;;3.22;;
21089;SDS011;10703;51.020;6.128;2023-06-14T08:33:13;5.10;;;3.38;;
21089;SDS011;10703;51.020;6.128;2023-06-14T08:35:42;8.95;;;4.05;;
21089;SDS011;10703;51.020;6.128;2023-06-14T08:38:10;7.32;;;3.40;;
21089;SDS011;10703;51.020;6.128;2023-06-14T08:40:38;14.10;;;3.35;;
21089;SDS011;10703;51.020;6.128;2023-06-14T08:43:07;6.32;;;3.85;;
21089;SDS011;10703;51.020;6.128;2023-06-14T08:45:34;6.13;;;3.15;;
21089;SDS011;10703;51.020;6.128;2023-06-14T08:48:01;10.48;;;3.20;;
21089;SDS011;10703;51.020;6.128;2023-06-14T08:50:28;5.43;;;3.38;;
21089;SDS011;10703;51.020;6.128;2023-06-14T08:52:59;8.38;;;3.58;;
21089;SDS011;10703;51.020;6.128;2023-06-14T08:55:31;7.55;;;3.70;;
21089;SDS011;10703;51.020;6.128;2023-06-14T08:58:02;7.95;;;3.45;;
21089;SDS011;10703;51.020;6.128;2023-06-14T09:00:30;7.10;;;3.10;;
21089;SDS011;10703;51.020;6.128;2023-06-14T09:02:59;9.43;;;3.78;;
21089;SDS011;10703;51.020;6.128;2023-06-14T09:05:27;7.68;;;3.40;;
21089;SDS011;10703;51.020;6.128;2023-06-14T09:07:54;5.03;;;3.55;;
21089;SDS011;10703;51.020;6.128;2023-06-14T09:10:22;9.50;;;3.20;;
21089;SDS011;10703;51.020;6.128;2023-06-14T09:12:52;6.15;;;3.20;;
21089;SDS011;10703;51.020;6.128;2023-06-14T09:15:19;6.18;;;3.38;;
21089;SDS011;10703;51.020;6.128;2023-06-14T09:17:46;3.15;;;2.80;;
21089;SDS011;10703;51.020;6.128;2023-06-14T09:20:14;6.30;;;2.90;;
21089;SDS011;10703;51.020;6.128;2023-06-14T09:22:45;8.20;;;2.95;;
21089;SDS011;10703;51.020;6.128;2023-06-14T09:25:12;3.22;;;2.50;;
21089;SDS011;10703;51.020;6.128;2023-06-14T09:28:01;5.82;;;2.72;;
21089;SDS011;10703;51.020;6.128;2023-06-14T09:30:28;9.35;;;2.92;;
21089;SDS011;10703;51.020;6.128;2023-06-14T09:32:55;4.78;;;2.55;;
21089;SDS011;10703;51.020;6.128;2023-06-14T09:35:25;3.75;;;2.60;;
21089;SDS011;10703;51.020;6.128;2023-06-14T09:37:52;4.30;;;2.72;;
21089;SDS011;10703;51.020;6.128;2023-06-14T09:40:21;3.55;;;2.00;;
21089;SDS011;10703;51.020;6.128;2023-06-14T09:42:49;4.50;;;2.25;;
21089;SDS011;10703;51.020;6.128;2023-06-14T09:45:17;4.57;;;2.00;;
21089;SDS011;10703;51.020;6.128;2023-06-14T09:47:48;2.72;;;1.98;;
21089;SDS011;10703;51.020;6.128;2023-06-14T09:50:31;6.32;;;1.98;;
21089;SDS011;10703;51.020;6.128;2023-06-14T09:53:00;4.25;;;2.03;;
21089;SDS011;10703;51.020;6.128;2023-06-14T09:55:31;4.25;;;2.05;;
21089;SDS011;10703;51.020;6.128;2023-06-14T09:58:04;4.03;;;2.13;;
21089;SDS011;10703;51.020;6.128;2023-06-14T10:00:33;5.40;;;1.90;;
21089;SDS011;10703;51.020;6.128;2023-06-14T10:03:03;5.03;;;2.30;;
21089;SDS011;10703;51.020;6.128;2023-06-14T10:05:44;4.65;;;1.83;;
21089;SDS011;10703;51.020;6.128;2023-06-14T10:08:16;4.03;;;2.25;;
21089;SDS011;10703;51.020;6.128;2023-06-14T10:10:45;2.35;;;2.15;;
21089;SDS011;10703;51.020;6.128;2023-06-14T10:13:12;2.28;;;1.92;;
21089;SDS011;10703;51.020;6.128;2023-06-14T10:18:49;4.80;;;1.95;;
21089;SDS011;10703;51.020;6.128;2023-06-14T10:21:33;4.35;;;2.25;;
21089;SDS011;10703;51.020;6.128;2023-06-14T10:24:08;4.75;;;2.10;;
21089;SDS011;10703;51.020;6.128;2023-06-14T10:26:52;2.80;;;2.10;;
21089;SDS011;10703;51.020;6.128;2023-06-14T10:29:25;5.07;;;2.20;;
21089;SDS011;10703;51.020;6.128;2023-06-14T10:31:55;4.30;;;2.20;;
21089;SDS011;10703;51.020;6.128;2023-06-14T10:34:24;4.53;;;2.17;;
21089;SDS011;10703;51.020;6.128;2023-06-14T10:37:08;4.40;;;2.10;;
21089;SDS011;10703;51.020;6.128;2023-06-14T10:39:42;8.02;;;2.00;;
21089;SDS011;10703;51.020;6.128;2023-06-14T10:42:11;5.13;;;2.10;;
21089;SDS011;10703;51.020;6.128;2023-06-14T10:44:46;3.38;;;1.88;;
21089;SDS011;10703;51.020;6.128;2023-06-14T10:52:21;2.13;;;1.92;;
21089;SDS011;10703;51.020;6.128;2023-06-14T10:57:33;5.80;;;2.40;;
21089;SDS011;10703;51.020;6.128;2023-06-14T11:00:15;2.97;;;2.08;;
21089;SDS011;10703;51.020;6.128;2023-06-14T11:02:51;4.07;;;2.10;;
21089;SDS011;10703;51.020;6.128;2023-06-14T11:06:01;4.93;;;2.08;;
21089;SDS011;10703;51.020;6.128;2023-06-14T11:08:39;2.35;;;1.80;;
21089;SDS011;10703;51.020;6.128;2023-06-14T11:11:16;3.40;;;1.83;;
21089;SDS011;10703;51.020;6.128;2023-06-14T11:13:44;5.35;;;1.90;;
21089;SDS011;10703;51.020;6.128;2023-06-14T11:16:15;3.95;;;2.10;;
21089;SDS011;10703;51.020;6.128;2023-06-14T11:18:43;7.18;;;1.95;;
21089;SDS011;10703;51.020;6.128;2023-06-14T11:21:15;7.55;;;2.00;;
21089;SDS011;10703;51.020;6.128;2023-06-14T11:23:48;5.82;;;2.05;;
21089;SDS011;10703;51.020;6.128;2023-06-14T11:26:15;4.63;;;2.10;;
21089;SDS011;10703;51.020;6.128;2023-06-14T11:28:42;2.05;;;1.90;;
21089;SDS011;10703;51.020;6.128;2023-06-14T11:31:09;4.20;;;2.00;;
21089;SDS011;10703;51.020;6.128;2023-06-14T11:33:35;4.07;;;2.10;;
21089;SDS011;10703;51.020;6.128;2023-06-14T11:36:03;4.38;;;2.28;;
21089;SDS011;10703;51.020;6.128;2023-06-14T11:38:34;5.70;;;2.10;;
21089;SDS011;10703;51.020;6.128;2023-06-14T11:41:02;4.63;;;2.10;;
21089;SDS011;10703;51.020;6.128;2023-06-14T11:43:29;6.22;;;2.63;;
21089;SDS011;10703;51.020;6.128;2023-06-14T11:45:58;4.28;;;1.95;;
21089;SDS011;10703;51.020;6.128;2023-06-14T11:48:40;5.57;;;2.15;;
21089;SDS011;10703;51.020;6.128;2023-06-14T11:51:08;4.22;;;2.08;;
21089;SDS011;10703;51.020;6.128;2023-06-14T11:53:35;5.93;;;2.30;;
21089;SDS011;10703;51.020;6.128;2023-06-14T11:56:02;4.93;;;2.30;;
21089;SDS011;10703;51.020;6.128;2023-06-14T11:58:29;4.80;;;2.35;;
21089;SDS011;10703;51.020;6.128;2023-06-14T12:00:56;3.78;;;2.20;;
21089;SDS011;10703;51.020;6.128;2023-06-14T12:03:24;3.30;;;2.13;;
21089;SDS011;10703;51.020;6.128;2023-06-14T12:06:01;7.30;;;2.70;;
21089;SDS011;10703;51.020;6.128;2023-06-14T12:08:36;10.05;;;2.35;;
21089;SDS011;10703;51.020;6.128;2023-06-14T12:11:07;5.93;;;2.20;;
21089;SDS011;10703;51.020;6.128;2023-06-14T12:13:38;2.90;;;1.98;;
21089;SDS011;10703;51.020;6.128;2023-06-14T12:16:08;5.93;;;2.10;;
21089;SDS011;10703;51.020;6.128;2023-06-14T12:18:36;2.65;;;1.98;;
21089;SDS011;10703;51.020;6.128;2023-06-14T12:21:04;3.58;;;1.88;;
21089;SDS011;10703;51.020;6.128;2023-06-14T12:23:39;2.78;;;2.03;;
21089;SDS011;10703;51.020;6.128;2023-06-14T12:26:14;4.72;;;2.05;;
21089;SDS011;10703;51.020;6.128;2023-06-14T12:28:43;4.57;;;1.90;;
21089;SDS011;10703;51.020;6.128;2023-06-14T12:31:11;2.78;;;1.75;;
21089;SDS011;10703;51.020;6.128;2023-06-14T12:33:39;4.97;;;1.70;;
21089;SDS011;10703;51.020;6.128;2023-06-14T12:36:08;11.55;;;1.92;;
21089;SDS011;10703;51.020;6.128;2023-06-14T12:38:36;4.65;;;1.92;;
21089;SDS011;10703;51.020;6.128;2023-06-14T12:41:03;2.10;;;1.90;;
21089;SDS011;10703;51.020;6.128;2023-06-14T12:43:30;6.93;;;1.90;;
21089;SDS011;10703;51.020;6.128;2023-06-14T12:45:57;2.40;;;1.90;;
21089;SDS011;10703;51.020;6.128;2023-06-14T12:48:24;2.65;;;2.20;;
21089;SDS011;10703;51.020;6.128;2023-06-14T12:50:50;2.70;;;2.00;;
21089;SDS011;10703;51.020;6.128;2023-06-14T12:53:17;2.00;;;1.60;;
21089;SDS011;10703;51.020;6.128;2023-06-14T12:55:44;3.85;;;1.60;;
21089;SDS011;10703;51.020;6.128;2023-06-14T12:58:11;2.30;;;2.00;;
21089;SDS011;10703;51.020;6.128;2023-06-14T13:00:40;9.73;;;2.05;;
21089;SDS011;10703;51.020;6.128;2023-06-14T13:03:07;1.90;;;1.70;;
21089;SDS011;10703;51.020;6.128;2023-06-14T13:05:33;5.18;;;1.90;;
21089;SDS011;10703;51.020;6.128;2023-06-14T13:08:00;4.32;;;2.05;;
21089;SDS011;10703;51.020;6.128;2023-06-14T13:10:27;4.13;;;2.10;;
21089;SDS011;10703;51.020;6.128;2023-06-14T13:12:54;2.20;;;2.00;;
21089;SDS011;10703;51.020;6.128;2023-06-14T13:15:21;5.20;;;2.25;;
21089;SDS011;10703;51.020;6.128;2023-06-14T13:17:47;3.47;;;2.03;;
21089;SDS011;10703;51.020;6.128;2023-06-14T13:20:15;4.03;;;2.08;;
21089;SDS011;10703;51.020;6.128;2023-06-14T13:22:46;3.13;;;1.90;;
21089;SDS011;10703;51.020;6.128;2023-06-14T13:25:13;5.80;;;2.33;;
21089;SDS011;10703;51.020;6.128;2023-06-14T13:27:39;4.47;;;2.03;;
21089;SDS011;10703;51.020;6.128;2023-06-14T13:30:06;3.58;;;1.83;;
21089;SDS011;10703;51.020;6.128;2023-06-14T13:32:33;6.13;;;2.17;;
21089;SDS011;10703;51.020;6.128;2023-06-14T13:35:00;7.13;;;2.10;;
21089;SDS011;10703;51.020;6.128;2023-06-14T13:37:27;2.55;;;2.10;;
21089;SDS011;10703;51.020;6.128;2023-06-14T13:39:53;4.60;;;2.10;;
21089;SDS011;10703;51.020;6.128;2023-06-14T13:42:21;5.57;;;2.58;;
21089;SDS011;10703;51.020;6.128;2023-06-14T13:44:47;4.55;;;2.20;;
21089;SDS011;10703;51.020;6.128;2023-06-14T13:47:14;4.38;;;1.80;;
21089;SDS011;10703;51.020;6.128;2023-06-14T13:49:41;2.80;;;2.10;;
21089;SDS011;10703;51.020;6.128;2023-06-14T13:52:08;2.60;;;2.00;;
21089;SDS011;10703;51.020;6.128;2023-06-14T13:54:35;3.50;;;2.63;;
21089;SDS011;10703;51.020;6.128;2023-06-14T13:57:02;9.70;;;2.20;;
21089;SDS011;10703;51.020;6.128;2023-06-14T13:59:29;3.10;;;2.03;;
21089;SDS011;10703;51.020;6.128;2023-06-14T14:01:56;3.60;;;2.10;;
21089;SDS011;10703;51.020;6.128;2023-06-14T14:04:23;3.75;;;2.28;;
21089;SDS011;10703;51.020;6.128;2023-06-14T14:06:49;5.65;;;1.90;;
21089;SDS011;10703;51.020;6.128;2023-06-14T14:09:16;7.43;;;2.13;;
21089;SDS011;10703;51.020;6.128;2023-06-14T14:11:43;4.47;;;1.90;;
21089;SDS011;10703;51.020;6.128;2023-06-14T14:14:10;10.75;;;2.20;;
21089;SDS011;10703;51.020;6.128;2023-06-14T14:16:36;1.88;;;1.77;;
21089;SDS011;10703;51.020;6.128;2023-06-14T14:19:04;4.68;;;2.10;;
21089;SDS011;10703;51.020;6.128;2023-06-14T14:21:32;3.03;;;2.17;;
21089;SDS011;10703;51.020;6.128;2023-06-14T14:23:58;4.38;;;1.98;;
21089;SDS011;10703;51.020;6.128;2023-06-14T14:26:26;5.03;;;2.00;;
21089;SDS011;10703;51.020;6.128;2023-06-14T14:28:53;5.22;;;2.33;;
21089;SDS011;10703;51.020;6.128;2023-06-14T14:31:19;4.63;;;1.80;;
21089;SDS011;10703;51.020;6.128;2023-06-14T14:33:46;4.93;;;1.98;;
21089;SDS011;10703;51.020;6.128;2023-06-14T14:36:13;2.40;;;1.70;;
21089;SDS011;10703;51.020;6.128;2023-06-14T14:38:40;4.57;;;2.03;;
21089;SDS011;10703;51.020;6.128;2023-06-14T14:41:07;7.00;;;1.95;;
21089;SDS011;10703;51.020;6.128;2023-06-14T14:43:34;2.25;;;1.80;;
21089;SDS011;10703;51.020;6.128;2023-06-14T14:46:00;3.45;;;1.75;;
21089;SDS011;10703;51.020;6.128;2023-06-14T14:48:27;1.88;;;1.65;;
21089;SDS011;10703;51.020;6.128;2023-06-14T14:50:53;2.28;;;1.75;;
21089;SDS011;10703;51.020;6.128;2023-06-14T14:53:20;3.50;;;1.65;;
21089;SDS011;10703;51.020;6.128;2023-06-14T14:55:48;3.13;;;1.70;;
21089;SDS011;10703;51.020;6.128;2023-06-14T14:58:15;7.72;;;1.90;;
21089;SDS011;10703;51.020;6.128;2023-06-14T15:00:44;5.35;;;1.70;;
21089;SDS011;10703;51.020;6.128;2023-06-14T15:03:12;3.67;;;1.92;;